sensor_id;sensor_type;location;lat;lon;timestamp;temperature;humidity
12264;DHT22;6194;49.010;8.414;2023-08-21T00:01:18;23.30;99.90
12264;DHT22;6194;49.010;8.414;2023-08-21T00:03:44;23.40;99.90
12264;DHT22;6194;49.010;8.414;2023-08-21T00:06:10;23.30;99.90
12264;DHT22;6194;49.010;8.414;2023-08-21T00:08:36;23.30;99.90
12264;DHT22;6194;49.010;8.414;2023-08-21T00:11:01;23.20;99.90
12264;DHT22;6194;49.010;8.414;2023-08-21T00:13:27;23.10;99.90
12264;DHT22;6194;49.010;8.414;2023-08-21T00:15:52;23.00;99.90
12264;DHT22;6194;49.010;8.414;2023-08-21T00:18:19;23.00;99.90
12264;DHT22;6194;49.010;8.414;2023-08-21T00:20:45;23.10;99.90
12264;DHT22;6194;49.010;8.414;2023-08-21T00:23:10;23.20;99.90
12264;DHT22;6194;49.010;8.414;2023-08-21T00:25:36;23.30;99.90
12264;DHT22;6194;49.010;8.414;2023-08-21T00:28:02;23.30;99.90
12264;DHT22;6194;49.010;8.414;2023-08-21T00:30:27;23.30;99.90
12264;DHT22;6194;49.010;8.414;2023-08-21T00:32:53;23.20;99.90
12264;DHT22;6194;49.010;8.414;2023-08-21T00:35:18;23.20;99.90
12264;DHT22;6194;49.010;8.414;2023-08-21T00:37:44;23.10;99.90
12264;DHT22;6194;49.010;8.414;2023-08-21T00:40:10;23.10;99.90
12264;DHT22;6194;49.010;8.414;2023-08-21T00:42:35;23.00;99.90
12264;DHT22;6194;49.010;8.414;2023-08-21T00:45:01;23.00;99.90
12264;DHT22;6194;49.010;8.414;2023-08-21T00:47:28;23.00;99.90
12264;DHT22;6194;49.010;8.414;2023-08-21T00:49:54;23.00;99.90
12264;DHT22;6194;49.010;8.414;2023-08-21T00:52:20;22.90;99.90
12264;DHT22;6194;49.010;8.414;2023-08-21T00:54:46;22.90;99.90
12264;DHT22;6194;49.010;8.414;2023-08-21T00:57:12;22.90;99.90
12264;DHT22;6194;49.010;8.414;2023-08-21T00:59:38;22.80;99.90
12264;DHT22;6194;49.010;8.414;2023-08-21T01:02:04;22.70;99.90
12264;DHT22;6194;49.010;8.414;2023-08-21T01:04:29;22.50;99.90
12264;DHT22;6194;49.010;8.414;2023-08-21T01:06:57;22.60;99.90
12264;DHT22;6194;49.010;8.414;2023-08-21T01:14:50;22.60;99.90
12264;DHT22;6194;49.010;8.414;2023-08-21T01:17:19;22.50;99.90
12264;DHT22;6194;49.010;8.414;2023-08-21T01:19:48;22.60;99.90
12264;DHT22;6194;49.010;8.414;2023-08-21T01:22:14;22.30;99.90
12264;DHT22;6194;49.010;8.414;2023-08-21T01:24:40;22.20;99.90
12264;DHT22;6194;49.010;8.414;2023-08-21T01:27:05;22.20;99.90
12264;DHT22;6194;49.010;8.414;2023-08-21T01:29:32;22.30;99.90
12264;DHT22;6194;49.010;8.414;2023-08-21T01:32:37;22.30;99.90
12264;DHT22;6194;49.010;8.414;2023-08-21T01:34:55;22.30;99.90
12264;DHT22;6194;49.010;8.414;2023-08-21T01:37:21;22.30;99.90
12264;DHT22;6194;49.010;8.414;2023-08-21T01:39:47;22.30;99.90
12264;DHT22;6194;49.010;8.414;2023-08-21T01:42:13;22.30;99.90
12264;DHT22;6194;49.010;8.414;2023-08-21T01:44:38;22.20;99.90
12264;DHT22;6194;49.010;8.414;2023-08-21T01:47:04;22.30;99.90
12264;DHT22;6194;49.010;8.414;2023-08-21T01:49:30;22.30;99.90
12264;DHT22;6194;49.010;8.414;2023-08-21T01:51:55;22.30;99.90
12264;DHT22;6194;49.010;8.414;2023-08-21T01:54:21;22.20;99.90
12264;DHT22;6194;49.010;8.414;2023-08-21T01:56:46;22.10;99.90
12264;DHT22;6194;49.010;8.414;2023-08-21T01:59:12;22.10;99.90
12264;DHT22;6194;49.010;8.414;2023-08-21T02:01:38;22.00;99.90
12264;DHT22;6194;49.010;8.414;2023-08-21T02:04:03;22.10;99.90
12264;DHT22;6194;49.010;8.414;2023-08-21T02:06:29;22.20;99.90
12264;DHT22;6194;49.010;8.414;2023-08-21T02:08:54;22.20;99.90
12264;DHT22;6194;49.010;8.414;2023-08-21T02:11:20;22.30;99.90
12264;DHT22;6194;49.010;8.414;2023-08-21T02:13:45;22.30;99.90
12264;DHT22;6194;49.010;8.414;2023-08-21T02:16:11;22.20;99.90
12264;DHT22;6194;49.010;8.414;2023-08-21T02:18:36;22.20;99.90
12264;DHT22;6194;49.010;8.414;2023-08-21T02:21:02;22.20;99.90
12264;DHT22;6194;49.010;8.414;2023-08-21T02:23:28;22.10;99.90
12264;DHT22;6194;49.010;8.414;2023-08-21T02:25:55;22.00;99.90
12264;DHT22;6194;49.010;8.414;2023-08-21T02:28:20;21.90;99.90
12264;DHT22;6194;49.010;8.414;2023-08-21T02:30:46;21.90;99.90
12264;DHT22;6194;49.010;8.414;2023-08-21T02:33:11;21.90;99.90
12264;DHT22;6194;49.010;8.414;2023-08-21T02:35:38;21.90;99.90
12264;DHT22;6194;49.010;8.414;2023-08-21T02:38:03;22.00;99.90
12264;DHT22;6194;49.010;8.414;2023-08-21T02:40:29;21.90;99.90
12264;DHT22;6194;49.010;8.414;2023-08-21T02:42:55;21.90;99.90
12264;DHT22;6194;49.010;8.414;2023-08-21T02:45:20;21.90;99.90
12264;DHT22;6194;49.010;8.414;2023-08-21T02:47:46;21.80;99.90
12264;DHT22;6194;49.010;8.414;2023-08-21T02:50:12;21.60;99.90
12264;DHT22;6194;49.010;8.414;2023-08-21T02:52:38;21.60;99.90
12264;DHT22;6194;49.010;8.414;2023-08-21T02:55:04;21.60;99.90
12264;DHT22;6194;49.010;8.414;2023-08-21T02:57:30;21.70;99.90
12264;DHT22;6194;49.010;8.414;2023-08-21T02:59:56;21.60;99.90
12264;DHT22;6194;49.010;8.414;2023-08-21T03:02:22;21.60;99.90
12264;DHT22;6194;49.010;8.414;2023-08-21T03:04:48;21.70;99.90
12264;DHT22;6194;49.010;8.414;2023-08-21T03:07:14;21.80;99.90
12264;DHT22;6194;49.010;8.414;2023-08-21T03:09:41;21.70;99.90
12264;DHT22;6194;49.010;8.414;2023-08-21T03:12:07;21.60;99.90
12264;DHT22;6194;49.010;8.414;2023-08-21T03:14:33;21.60;99.90
12264;DHT22;6194;49.010;8.414;2023-08-21T03:16:59;21.50;99.90
12264;DHT22;6194;49.010;8.414;2023-08-21T03:19:25;21.60;99.90
12264;DHT22;6194;49.010;8.414;2023-08-21T03:21:50;21.60;99.90
12264;DHT22;6194;49.010;8.414;2023-08-21T03:24:17;21.60;99.90
12264;DHT22;6194;49.010;8.414;2023-08-21T03:26:43;21.60;99.90
12264;DHT22;6194;49.010;8.414;2023-08-21T03:29:08;21.60;99.90
12264;DHT22;6194;49.010;8.414;2023-08-21T03:31:34;21.70;99.90
12264;DHT22;6194;49.010;8.414;2023-08-21T03:33:59;21.60;99.90
12264;DHT22;6194;49.010;8.414;2023-08-21T03:36:25;21.60;99.90
12264;DHT22;6194;49.010;8.414;2023-08-21T03:39:00;21.50;99.90
12264;DHT22;6194;49.010;8.414;2023-08-21T03:41:26;21.40;99.90
12264;DHT22;6194;49.010;8.414;2023-08-21T03:43:52;21.30;99.90
12264;DHT22;6194;49.010;8.414;2023-08-21T03:46:17;21.20;99.90
12264;DHT22;6194;49.010;8.414;2023-08-21T03:48:43;21.20;99.90
12264;DHT22;6194;49.010;8.414;2023-08-21T03:51:08;21.20;99.90
12264;DHT22;6194;49.010;8.414;2023-08-21T03:53:34;21.20;99.90
12264;DHT22;6194;49.010;8.414;2023-08-21T03:56:00;21.20;99.90
12264;DHT22;6194;49.010;8.414;2023-08-21T03:58:25;21.20;99.90
12264;DHT22;6194;49.010;8.414;2023-08-21T04:00:55;21.10;99.90
12264;DHT22;6194;49.010;8.414;2023-08-21T04:03:21;21.20;99.90
12264;DHT22;6194;49.010;8.414;2023-08-21T04:05:47;21.20;99.90
12264;DHT22;6194;49.010;8.414;2023-08-21T04:08:13;21.20;99.90
12264;DHT22;6194;49.010;8.414;2023-08-21T04:10:38;21.10;99.90
12264;DHT22;6194;49.010;8.414;2023-08-21T04:13:04;21.00;99.90
12264;DHT22;6194;49.010;8.414;2023-08-21T04:15:30;21.10;99.90
12264;DHT22;6194;49.010;8.414;2023-08-21T04:17:56;21.10;99.90
12264;DHT22;6194;49.010;8.414;2023-08-21T04:20:22;21.00;99.90
12264;DHT22;6194;49.010;8.414;2023-08-21T04:22:48;21.10;99.90
12264;DHT22;6194;49.010;8.414;2023-08-21T04:25:14;21.10;99.90
12264;DHT22;6194;49.010;8.414;2023-08-21T04:27:39;21.20;99.90
12264;DHT22;6194;49.010;8.414;2023-08-21T04:30:06;21.20;99.90
12264;DHT22;6194;49.010;8.414;2023-08-21T04:32:31;21.20;99.90
12264;DHT22;6194;49.010;8.414;2023-08-21T04:34:57;21.20;99.90
12264;DHT22;6194;49.010;8.414;2023-08-21T04:37:23;21.20;99.90
12264;DHT22;6194;49.010;8.414;2023-08-21T04:39:53;21.20;99.90
12264;DHT22;6194;49.010;8.414;2023-08-21T04:42:19;21.30;99.90
12264;DHT22;6194;49.010;8.414;2023-08-21T04:44:44;21.30;99.90
12264;DHT22;6194;49.010;8.414;2023-08-21T04:47:21;21.30;99.90
12264;DHT22;6194;49.010;8.414;2023-08-21T04:49:50;21.40;99.90
12264;DHT22;6194;49.010;8.414;2023-08-21T04:52:16;21.40;99.90
12264;DHT22;6194;49.010;8.414;2023-08-21T04:54:42;21.40;99.90
12264;DHT22;6194;49.010;8.414;2023-08-21T04:57:07;21.50;99.90
12264;DHT22;6194;49.010;8.414;2023-08-21T04:59:34;21.50;99.90
12264;DHT22;6194;49.010;8.414;2023-08-21T05:02:00;21.60;99.90
12264;DHT22;6194;49.010;8.414;2023-08-21T05:04:26;21.70;99.90
12264;DHT22;6194;49.010;8.414;2023-08-21T05:06:52;21.70;99.90
12264;DHT22;6194;49.010;8.414;2023-08-21T05:09:17;21.90;99.90
12264;DHT22;6194;49.010;8.414;2023-08-21T05:11:43;22.20;99.90
12264;DHT22;6194;49.010;8.414;2023-08-21T05:14:08;22.50;99.90
12264;DHT22;6194;49.010;8.414;2023-08-21T05:16:34;22.90;99.90
12264;DHT22;6194;49.010;8.414;2023-08-21T05:19:00;23.30;99.90
12264;DHT22;6194;49.010;8.414;2023-08-21T05:21:26;23.70;99.90
12264;DHT22;6194;49.010;8.414;2023-08-21T05:23:52;24.10;99.90
12264;DHT22;6194;49.010;8.414;2023-08-21T05:26:17;24.50;99.90
12264;DHT22;6194;49.010;8.414;2023-08-21T05:28:43;25.00;99.90
12264;DHT22;6194;49.010;8.414;2023-08-21T05:31:08;25.50;99.90
12264;DHT22;6194;49.010;8.414;2023-08-21T05:33:34;25.60;99.90
12264;DHT22;6194;49.010;8.414;2023-08-21T05:35:59;25.60;99.90
12264;DHT22;6194;49.010;8.414;2023-08-21T05:38:25;25.60;99.90
12264;DHT22;6194;49.010;8.414;2023-08-21T05:40:51;25.60;99.90
12264;DHT22;6194;49.010;8.414;2023-08-21T05:43:16;25.80;99.90
12264;DHT22;6194;49.010;8.414;2023-08-21T05:45:42;25.90;99.90
12264;DHT22;6194;49.010;8.414;2023-08-21T05:48:10;26.00;99.90
12264;DHT22;6194;49.010;8.414;2023-08-21T05:50:36;26.40;99.90
12264;DHT22;6194;49.010;8.414;2023-08-21T05:53:06;26.40;99.90
12264;DHT22;6194;49.010;8.414;2023-08-21T05:55:32;26.70;99.90
12264;DHT22;6194;49.010;8.414;2023-08-21T05:57:58;26.80;99.90
12264;DHT22;6194;49.010;8.414;2023-08-21T06:00:23;27.00;99.90
12264;DHT22;6194;49.010;8.414;2023-08-21T06:02:49;27.00;99.90
12264;DHT22;6194;49.010;8.414;2023-08-21T06:05:15;27.10;99.90
12264;DHT22;6194;49.010;8.414;2023-08-21T06:07:41;27.20;99.90
12264;DHT22;6194;49.010;8.414;2023-08-21T06:10:07;27.20;99.90
12264;DHT22;6194;49.010;8.414;2023-08-21T06:12:33;26.90;99.90
12264;DHT22;6194;49.010;8.414;2023-08-21T06:14:59;26.90;99.90
12264;DHT22;6194;49.010;8.414;2023-08-21T06:17:27;27.10;99.90
12264;DHT22;6194;49.010;8.414;2023-08-21T06:19:52;27.00;99.90
12264;DHT22;6194;49.010;8.414;2023-08-21T06:22:18;27.00;99.90
12264;DHT22;6194;49.010;8.414;2023-08-21T06:24:43;27.20;99.90
12264;DHT22;6194;49.010;8.414;2023-08-21T06:27:09;27.10;99.90
12264;DHT22;6194;49.010;8.414;2023-08-21T06:29:35;27.30;99.90
12264;DHT22;6194;49.010;8.414;2023-08-21T06:32:03;27.20;99.90
12264;DHT22;6194;49.010;8.414;2023-08-21T06:34:29;27.00;99.90
12264;DHT22;6194;49.010;8.414;2023-08-21T06:36:54;27.10;99.90
12264;DHT22;6194;49.010;8.414;2023-08-21T06:39:20;27.30;99.90
12264;DHT22;6194;49.010;8.414;2023-08-21T06:41:45;27.50;99.90
12264;DHT22;6194;49.010;8.414;2023-08-21T06:44:11;27.50;99.90
12264;DHT22;6194;49.010;8.414;2023-08-21T06:46:37;27.60;99.90
12264;DHT22;6194;49.010;8.414;2023-08-21T06:49:02;27.50;99.90
12264;DHT22;6194;49.010;8.414;2023-08-21T06:51:28;27.40;99.90
12264;DHT22;6194;49.010;8.414;2023-08-21T06:53:54;28.00;99.90
12264;DHT22;6194;49.010;8.414;2023-08-21T06:56:20;26.60;99.90
12264;DHT22;6194;49.010;8.414;2023-08-21T06:58:45;26.30;99.90
12264;DHT22;6194;49.010;8.414;2023-08-21T07:01:11;26.20;99.90
12264;DHT22;6194;49.010;8.414;2023-08-21T07:03:36;26.00;99.90
12264;DHT22;6194;49.010;8.414;2023-08-21T07:06:02;26.00;99.90
12264;DHT22;6194;49.010;8.414;2023-08-21T07:08:28;25.90;99.90
12264;DHT22;6194;49.010;8.414;2023-08-21T07:10:54;25.90;99.90
12264;DHT22;6194;49.010;8.414;2023-08-21T07:13:20;25.80;99.90
12264;DHT22;6194;49.010;8.414;2023-08-21T07:15:46;25.80;99.90
12264;DHT22;6194;49.010;8.414;2023-08-21T07:18:12;25.60;99.90
12264;DHT22;6194;49.010;8.414;2023-08-21T07:20:38;25.70;99.90
12264;DHT22;6194;49.010;8.414;2023-08-21T07:23:03;25.70;99.90
12264;DHT22;6194;49.010;8.414;2023-08-21T07:25:29;25.80;99.90
12264;DHT22;6194;49.010;8.414;2023-08-21T07:27:55;25.90;99.90
12264;DHT22;6194;49.010;8.414;2023-08-21T07:30:21;26.00;99.90
12264;DHT22;6194;49.010;8.414;2023-08-21T07:32:52;26.20;99.90
12264;DHT22;6194;49.010;8.414;2023-08-21T07:35:18;26.20;99.90
12264;DHT22;6194;49.010;8.414;2023-08-21T07:37:44;26.30;99.90
12264;DHT22;6194;49.010;8.414;2023-08-21T07:40:10;26.40;99.90
12264;DHT22;6194;49.010;8.414;2023-08-21T07:42:35;26.40;99.90
12264;DHT22;6194;49.010;8.414;2023-08-21T07:45:01;26.40;99.90
12264;DHT22;6194;49.010;8.414;2023-08-21T07:47:27;26.60;99.90
12264;DHT22;6194;49.010;8.414;2023-08-21T07:49:54;26.60;99.90
12264;DHT22;6194;49.010;8.414;2023-08-21T07:52:20;26.70;99.90
12264;DHT22;6194;49.010;8.414;2023-08-21T07:54:46;26.90;99.90
12264;DHT22;6194;49.010;8.414;2023-08-21T07:57:12;27.00;99.90
12264;DHT22;6194;49.010;8.414;2023-08-21T07:59:38;27.00;99.90
12264;DHT22;6194;49.010;8.414;2023-08-21T08:02:04;27.00;99.90
12264;DHT22;6194;49.010;8.414;2023-08-21T08:04:30;27.20;99.90
12264;DHT22;6194;49.010;8.414;2023-08-21T08:06:55;27.30;99.90
12264;DHT22;6194;49.010;8.414;2023-08-21T08:09:21;27.30;99.90
12264;DHT22;6194;49.010;8.414;2023-08-21T08:11:46;27.40;99.90
12264;DHT22;6194;49.010;8.414;2023-08-21T08:14:12;27.40;99.90
12264;DHT22;6194;49.010;8.414;2023-08-21T08:16:38;27.40;99.90
12264;DHT22;6194;49.010;8.414;2023-08-21T08:19:03;27.40;99.90
12264;DHT22;6194;49.010;8.414;2023-08-21T08:21:29;27.60;99.90
12264;DHT22;6194;49.010;8.414;2023-08-21T08:23:56;27.80;99.90
12264;DHT22;6194;49.010;8.414;2023-08-21T08:26:21;27.90;99.90
12264;DHT22;6194;49.010;8.414;2023-08-21T08:28:47;28.10;99.90
12264;DHT22;6194;49.010;8.414;2023-08-21T08:31:17;28.40;99.90
12264;DHT22;6194;49.010;8.414;2023-08-21T08:33:42;28.50;99.90
12264;DHT22;6194;49.010;8.414;2023-08-21T08:36:08;28.40;99.90
12264;DHT22;6194;49.010;8.414;2023-08-21T08:38:33;28.50;99.90
12264;DHT22;6194;49.010;8.414;2023-08-21T08:41:02;28.80;99.90
12264;DHT22;6194;49.010;8.414;2023-08-21T08:43:28;29.10;99.90
12264;DHT22;6194;49.010;8.414;2023-08-21T08:45:56;29.30;99.90
12264;DHT22;6194;49.010;8.414;2023-08-21T08:48:23;29.30;99.90
12264;DHT22;6194;49.010;8.414;2023-08-21T08:50:51;29.40;99.90
12264;DHT22;6194;49.010;8.414;2023-08-21T08:53:18;29.50;99.90
12264;DHT22;6194;49.010;8.414;2023-08-21T08:55:44;29.50;99.90
12264;DHT22;6194;49.010;8.414;2023-08-21T08:58:10;29.30;99.90
12264;DHT22;6194;49.010;8.414;2023-08-21T09:00:36;29.40;99.90
12264;DHT22;6194;49.010;8.414;2023-08-21T09:03:01;29.40;99.90
12264;DHT22;6194;49.010;8.414;2023-08-21T09:05:28;29.10;99.90
12264;DHT22;6194;49.010;8.414;2023-08-21T09:08:23;29.00;99.90
12264;DHT22;6194;49.010;8.414;2023-08-21T09:10:49;29.20;99.90
12264;DHT22;6194;49.010;8.414;2023-08-21T09:13:19;29.20;99.90
12264;DHT22;6194;49.010;8.414;2023-08-21T09:15:51;29.10;99.90
12264;DHT22;6194;49.010;8.414;2023-08-21T09:18:18;29.20;99.90
12264;DHT22;6194;49.010;8.414;2023-08-21T09:20:43;29.20;99.90
12264;DHT22;6194;49.010;8.414;2023-08-21T09:23:14;29.20;99.90
12264;DHT22;6194;49.010;8.414;2023-08-21T09:25:40;29.50;99.90
12264;DHT22;6194;49.010;8.414;2023-08-21T09:28:07;29.60;99.90
12264;DHT22;6194;49.010;8.414;2023-08-21T09:30:55;29.70;99.90
12264;DHT22;6194;49.010;8.414;2023-08-21T09:33:22;29.90;99.90
12264;DHT22;6194;49.010;8.414;2023-08-21T09:35:51;30.10;99.90
12264;DHT22;6194;49.010;8.414;2023-08-21T09:38:17;30.10;99.90
12264;DHT22;6194;49.010;8.414;2023-08-21T09:40:53;30.20;99.90
12264;DHT22;6194;49.010;8.414;2023-08-21T09:43:23;30.20;99.90
12264;DHT22;6194;49.010;8.414;2023-08-21T09:45:54;30.40;99.90
12264;DHT22;6194;49.010;8.414;2023-08-21T09:48:25;30.50;99.90
12264;DHT22;6194;49.010;8.414;2023-08-21T09:50:55;30.50;99.90
12264;DHT22;6194;49.010;8.414;2023-08-21T09:53:24;30.40;99.90
12264;DHT22;6194;49.010;8.414;2023-08-21T09:55:54;30.50;99.90
12264;DHT22;6194;49.010;8.414;2023-08-21T09:58:21;30.60;99.90
12264;DHT22;6194;49.010;8.414;2023-08-21T10:00:48;30.60;99.90
12264;DHT22;6194;49.010;8.414;2023-08-21T10:03:19;30.70;99.90
12264;DHT22;6194;49.010;8.414;2023-08-21T10:05:45;30.80;99.90
12264;DHT22;6194;49.010;8.414;2023-08-21T10:08:13;30.90;99.90
12264;DHT22;6194;49.010;8.414;2023-08-21T10:10:40;30.90;99.90
12264;DHT22;6194;49.010;8.414;2023-08-21T10:13:08;31.00;99.90
12264;DHT22;6194;49.010;8.414;2023-08-21T10:15:34;31.00;99.90
12264;DHT22;6194;49.010;8.414;2023-08-21T10:18:21;31.10;99.90
12264;DHT22;6194;49.010;8.414;2023-08-21T10:20:49;31.20;99.90
12264;DHT22;6194;49.010;8.414;2023-08-21T10:23:30;31.30;99.90
12264;DHT22;6194;49.010;8.414;2023-08-21T10:26:01;31.40;99.90
12264;DHT22;6194;49.010;8.414;2023-08-21T10:28:51;31.40;99.90
12264;DHT22;6194;49.010;8.414;2023-08-21T10:33:57;31.30;99.90
12264;DHT22;6194;49.010;8.414;2023-08-21T10:36:40;31.20;99.90
12264;DHT22;6194;49.010;8.414;2023-08-21T10:39:26;31.30;99.90
12264;DHT22;6194;49.010;8.414;2023-08-21T10:41:56;31.40;99.90
12264;DHT22;6194;49.010;8.414;2023-08-21T10:49:47;31.80;99.90
12264;DHT22;6194;49.010;8.414;2023-08-21T10:52:14;31.90;99.90
12264;DHT22;6194;49.010;8.414;2023-08-21T10:54:46;32.20;99.90
12264;DHT22;6194;49.010;8.414;2023-08-21T10:57:12;32.30;99.90
12264;DHT22;6194;49.010;8.414;2023-08-21T10:59:37;32.40;99.90
12264;DHT22;6194;49.010;8.414;2023-08-21T11:02:03;32.40;99.90
12264;DHT22;6194;49.010;8.414;2023-08-21T11:04:29;32.50;99.90
12264;DHT22;6194;49.010;8.414;2023-08-21T11:06:54;32.20;99.90
12264;DHT22;6194;49.010;8.414;2023-08-21T11:09:21;32.10;99.90
12264;DHT22;6194;49.010;8.414;2023-08-21T11:11:47;32.20;99.90
12264;DHT22;6194;49.010;8.414;2023-08-21T11:14:13;32.40;99.90
12264;DHT22;6194;49.010;8.414;2023-08-21T11:16:39;32.60;99.90
12264;DHT22;6194;49.010;8.414;2023-08-21T11:19:04;32.70;99.90
12264;DHT22;6194;49.010;8.414;2023-08-21T11:21:31;32.80;99.90
12264;DHT22;6194;49.010;8.414;2023-08-21T11:23:56;32.90;99.90
12264;DHT22;6194;49.010;8.414;2023-08-21T11:26:22;32.90;99.90
12264;DHT22;6194;49.010;8.414;2023-08-21T11:28:50;32.90;99.90
12264;DHT22;6194;49.010;8.414;2023-08-21T11:31:16;32.80;99.90
12264;DHT22;6194;49.010;8.414;2023-08-21T11:33:52;32.80;99.90
12264;DHT22;6194;49.010;8.414;2023-08-21T11:36:18;32.60;99.90
12264;DHT22;6194;49.010;8.414;2023-08-21T11:38:58;32.60;99.90
12264;DHT22;6194;49.010;8.414;2023-08-21T11:41:24;32.60;99.90
12264;DHT22;6194;49.010;8.414;2023-08-21T11:43:50;32.80;99.90
12264;DHT22;6194;49.010;8.414;2023-08-21T11:46:18;32.80;99.90
12264;DHT22;6194;49.010;8.414;2023-08-21T11:48:44;32.90;99.90
12264;DHT22;6194;49.010;8.414;2023-08-21T11:51:13;32.90;99.90
12264;DHT22;6194;49.010;8.414;2023-08-21T11:53:41;32.60;99.90
12264;DHT22;6194;49.010;8.414;2023-08-21T11:56:11;32.60;99.90
12264;DHT22;6194;49.010;8.414;2023-08-21T11:58:40;32.60;99.90
12264;DHT22;6194;49.010;8.414;2023-08-21T12:01:06;32.60;99.90
12264;DHT22;6194;49.010;8.414;2023-08-21T12:03:38;32.80;99.90
12264;DHT22;6194;49.010;8.414;2023-08-21T12:06:09;32.70;99.90
12264;DHT22;6194;49.010;8.414;2023-08-21T12:08:35;32.90;99.90
12264;DHT22;6194;49.010;8.414;2023-08-21T12:11:01;33.30;99.90
12264;DHT22;6194;49.010;8.414;2023-08-21T12:13:27;33.40;99.90
12264;DHT22;6194;49.010;8.414;2023-08-21T12:15:52;33.50;99.90
12264;DHT22;6194;49.010;8.414;2023-08-21T12:18:18;33.60;99.90
12264;DHT22;6194;49.010;8.414;2023-08-21T12:20:44;33.60;99.90
12264;DHT22;6194;49.010;8.414;2023-08-21T12:23:09;33.50;99.90
12264;DHT22;6194;49.010;8.414;2023-08-21T12:25:35;33.60;99.90
12264;DHT22;6194;49.010;8.414;2023-08-21T12:28:00;33.50;99.90
12264;DHT22;6194;49.010;8.414;2023-08-21T12:30:26;33.40;99.90
12264;DHT22;6194;49.010;8.414;2023-08-21T12:32:51;33.30;99.90
12264;DHT22;6194;49.010;8.414;2023-08-21T12:35:17;33.40;99.90
12264;DHT22;6194;49.010;8.414;2023-08-21T12:37:43;33.50;99.90
12264;DHT22;6194;49.010;8.414;2023-08-21T12:40:08;33.70;99.90
12264;DHT22;6194;49.010;8.414;2023-08-21T12:42:34;34.00;99.90
12264;DHT22;6194;49.010;8.414;2023-08-21T12:45:00;34.20;99.90
12264;DHT22;6194;49.010;8.414;2023-08-21T12:47:25;34.00;99.90
12264;DHT22;6194;49.010;8.414;2023-08-21T12:49:51;33.80;99.90
12264;DHT22;6194;49.010;8.414;2023-08-21T12:52:17;33.80;99.90
12264;DHT22;6194;49.010;8.414;2023-08-21T12:54:42;33.80;99.90
12264;DHT22;6194;49.010;8.414;2023-08-21T12:57:10;33.80;99.90
12264;DHT22;6194;49.010;8.414;2023-08-21T12:59:37;33.80;99.90
12264;DHT22;6194;49.010;8.414;2023-08-21T13:02:03;33.90;99.90
12264;DHT22;6194;49.010;8.414;2023-08-21T13:04:29;33.90;99.90
12264;DHT22;6194;49.010;8.414;2023-08-21T13:06:55;33.80;99.90
12264;DHT22;6194;49.010;8.414;2023-08-21T13:09:20;33.60;99.90
12264;DHT22;6194;49.010;8.414;2023-08-21T13:11:46;33.40;99.90
12264;DHT22;6194;49.010;8.414;2023-08-21T13:14:11;33.50;99.90
12264;DHT22;6194;49.010;8.414;2023-08-21T13:16:37;33.50;99.90
12264;DHT22;6194;49.010;8.414;2023-08-21T13:19:02;33.60;99.90
12264;DHT22;6194;49.010;8.414;2023-08-21T13:21:28;33.70;99.90
12264;DHT22;6194;49.010;8.414;2023-08-21T13:23:54;33.80;99.90
12264;DHT22;6194;49.010;8.414;2023-08-21T13:26:19;33.80;99.90
12264;DHT22;6194;49.010;8.414;2023-08-21T13:28:45;33.90;99.90
12264;DHT22;6194;49.010;8.414;2023-08-21T13:31:11;33.80;99.90
12264;DHT22;6194;49.010;8.414;2023-08-21T13:33:50;33.80;99.90
12264;DHT22;6194;49.010;8.414;2023-08-21T13:36:16;33.80;99.90
12264;DHT22;6194;49.010;8.414;2023-08-21T13:38:43;33.80;99.90
12264;DHT22;6194;49.010;8.414;2023-08-21T13:41:08;33.90;99.90
12264;DHT22;6194;49.010;8.414;2023-08-21T13:43:35;34.00;99.90
12264;DHT22;6194;49.010;8.414;2023-08-21T13:46:01;34.00;99.90
12264;DHT22;6194;49.010;8.414;2023-08-21T13:48:27;33.90;99.90
12264;DHT22;6194;49.010;8.414;2023-08-21T13:50:53;33.80;99.90
12264;DHT22;6194;49.010;8.414;2023-08-21T13:53:18;33.80;99.90
12264;DHT22;6194;49.010;8.414;2023-08-21T13:55:44;33.90;99.90
12264;DHT22;6194;49.010;8.414;2023-08-21T13:58:10;34.00;99.90
12264;DHT22;6194;49.010;8.414;2023-08-21T14:00:36;34.00;99.90
12264;DHT22;6194;49.010;8.414;2023-08-21T14:03:02;34.10;99.90
12264;DHT22;6194;49.010;8.414;2023-08-21T14:05:28;34.10;99.90
12264;DHT22;6194;49.010;8.414;2023-08-21T14:08:00;34.20;99.90
12264;DHT22;6194;49.010;8.414;2023-08-21T14:10:28;34.20;99.90
12264;DHT22;6194;49.010;8.414;2023-08-21T14:12:56;33.90;99.90
12264;DHT22;6194;49.010;8.414;2023-08-21T14:15:25;33.90;99.90
12264;DHT22;6194;49.010;8.414;2023-08-21T14:17:53;33.90;99.90
12264;DHT22;6194;49.010;8.414;2023-08-21T14:20:19;34.00;99.90
12264;DHT22;6194;49.010;8.414;2023-08-21T14:22:44;34.10;99.90
12264;DHT22;6194;49.010;8.414;2023-08-21T14:25:10;34.30;99.90
12264;DHT22;6194;49.010;8.414;2023-08-21T14:27:36;34.30;99.90
12264;DHT22;6194;49.010;8.414;2023-08-21T14:30:01;34.10;99.90
12264;DHT22;6194;49.010;8.414;2023-08-21T14:32:28;34.20;99.90
12264;DHT22;6194;49.010;8.414;2023-08-21T14:34:54;34.20;99.90
12264;DHT22;6194;49.010;8.414;2023-08-21T14:37:20;34.20;99.90
12264;DHT22;6194;49.010;8.414;2023-08-21T14:39:46;34.20;99.90
12264;DHT22;6194;49.010;8.414;2023-08-21T14:42:12;34.10;99.90
12264;DHT22;6194;49.010;8.414;2023-08-21T14:44:38;34.00;99.90
12264;DHT22;6194;49.010;8.414;2023-08-21T14:47:03;34.10;99.90
12264;DHT22;6194;49.010;8.414;2023-08-21T14:49:29;34.00;99.90
12264;DHT22;6194;49.010;8.414;2023-08-21T14:51:55;34.10;99.90
12264;DHT22;6194;49.010;8.414;2023-08-21T14:54:20;34.20;99.90
12264;DHT22;6194;49.010;8.414;2023-08-21T14:56:46;34.20;99.90
12264;DHT22;6194;49.010;8.414;2023-08-21T14:59:12;34.30;99.90
12264;DHT22;6194;49.010;8.414;2023-08-21T15:01:38;34.00;99.90
12264;DHT22;6194;49.010;8.414;2023-08-21T15:04:05;34.00;99.90
12264;DHT22;6194;49.010;8.414;2023-08-21T15:06:30;34.00;99.90
12264;DHT22;6194;49.010;8.414;2023-08-21T15:08:56;34.20;99.90
12264;DHT22;6194;49.010;8.414;2023-08-21T15:11:21;34.40;99.90
12264;DHT22;6194;49.010;8.414;2023-08-21T15:13:47;34.40;99.90
12264;DHT22;6194;49.010;8.414;2023-08-21T15:16:13;34.40;99.90
12264;DHT22;6194;49.010;8.414;2023-08-21T15:18:38;34.40;99.90
12264;DHT22;6194;49.010;8.414;2023-08-21T15:21:04;34.50;99.90
12264;DHT22;6194;49.010;8.414;2023-08-21T15:23:29;34.60;99.90
12264;DHT22;6194;49.010;8.414;2023-08-21T15:25:55;34.50;99.90
12264;DHT22;6194;49.010;8.414;2023-08-21T15:28:21;34.40;99.90
12264;DHT22;6194;49.010;8.414;2023-08-21T15:30:46;34.30;99.90
12264;DHT22;6194;49.010;8.414;2023-08-21T15:33:12;34.30;99.90
12264;DHT22;6194;49.010;8.414;2023-08-21T15:35:40;34.30;99.90
12264;DHT22;6194;49.010;8.414;2023-08-21T15:38:06;34.20;99.90
12264;DHT22;6194;49.010;8.414;2023-08-21T15:40:31;34.10;99.90
12264;DHT22;6194;49.010;8.414;2023-08-21T15:43:00;34.00;99.90
12264;DHT22;6194;49.010;8.414;2023-08-21T15:45:27;34.00;99.90
12264;DHT22;6194;49.010;8.414;2023-08-21T15:47:53;33.90;99.90
12264;DHT22;6194;49.010;8.414;2023-08-21T15:50:19;33.70;99.90
12264;DHT22;6194;49.010;8.414;2023-08-21T15:52:46;33.90;99.90
12264;DHT22;6194;49.010;8.414;2023-08-21T15:55:12;34.00;99.90